createdAt,value
2018-04-17T00:00:11.872Z,19.70
2018-04-17T00:02:39.271Z,20.73
2018-04-17T00:05:06.659Z,19.70
2018-04-17T00:07:34.047Z,20.17
2018-04-17T00:10:01.507Z,19.80
2018-04-17T00:12:28.894Z,21.27
2018-04-17T00:14:56.294Z,19.57
2018-04-17T00:17:23.688Z,17.83
2018-04-17T00:19:51.075Z,19.60
2018-04-17T00:22:18.467Z,19.03
2018-04-17T00:24:45.860Z,18.83
2018-04-17T00:27:13.254Z,20.50
2018-04-17T00:29:40.643Z,20.50
2018-04-17T00:32:08.027Z,19.20
2018-04-17T00:34:35.424Z,19.83
2018-04-17T00:37:02.823Z,19.77
2018-04-17T00:39:30.223Z,20.63
2018-04-17T00:41:57.602Z,20.60
2018-04-17T00:44:24.990Z,21.10
2018-04-17T00:46:52.387Z,19.60
2018-04-17T00:49:19.811Z,20.03
2018-04-17T00:51:47.206Z,18.93
2018-04-17T00:54:14.595Z,20.13
2018-04-17T00:56:41.983Z,20.60
2018-04-17T00:59:09.379Z,20.23
2018-04-17T01:01:36.771Z,19.67
2018-04-17T01:04:04.176Z,19.60
2018-04-17T01:06:31.565Z,18.87
2018-04-17T01:08:58.959Z,17.97
2018-04-17T01:11:26.352Z,18.73
2018-04-17T01:13:53.746Z,19.10
2018-04-17T01:16:21.143Z,18.70
2018-04-17T01:18:48.538Z,18.83
2018-04-17T01:21:15.918Z,19.13
2018-04-17T01:23:43.315Z,19.47
2018-04-17T01:26:10.695Z,18.27
2018-04-17T01:28:38.107Z,18.37
2018-04-17T01:31:05.491Z,18.83
2018-04-17T01:33:32.875Z,19.60
2018-04-17T01:36:00.266Z,19.77
2018-04-17T01:38:27.654Z,19.53
2018-04-17T01:40:55.076Z,19.10
2018-04-17T01:43:22.457Z,19.33
2018-04-17T01:45:49.847Z,18.77
2018-04-17T01:48:17.243Z,19.67
2018-04-17T01:50:44.635Z,20.63
2018-04-17T01:53:12.026Z,23.13
2018-04-17T01:55:39.413Z,22.00
2018-04-17T01:58:06.800Z,21.80
2018-04-17T02:00:34.191Z,23.63
2018-04-17T02:03:01.579Z,21.67
2018-04-17T02:05:28.999Z,21.13
2018-04-17T02:07:56.398Z,20.97
2018-04-17T02:10:23.906Z,21.47
2018-04-17T02:12:51.299Z,20.03
2018-04-17T02:15:18.694Z,20.80
2018-04-17T02:17:46.089Z,21.17
2018-04-17T02:20:13.470Z,20.90
2018-04-17T02:22:40.863Z,23.20
2018-04-17T02:25:08.260Z,20.87
2018-04-17T02:27:35.647Z,21.07
2018-04-17T02:30:03.043Z,19.60
2018-04-17T02:32:30.427Z,19.60
2018-04-17T02:34:57.816Z,20.57
2018-04-17T02:37:25.203Z,20.77
2018-04-17T02:39:52.591Z,21.23
2018-04-17T02:42:20.005Z,18.80
2018-04-17T02:44:47.395Z,19.50
2018-04-17T02:47:14.873Z,21.77
2018-04-17T02:49:43.131Z,21.30
2018-04-17T02:52:10.519Z,21.23
2018-04-17T02:54:37.920Z,22.80
2018-04-17T02:57:05.298Z,23.50
2018-04-17T02:59:32.680Z,20.33
2018-04-17T03:02:00.067Z,20.73
2018-04-17T03:04:27.451Z,22.40
2018-04-17T03:06:54.866Z,23.63
2018-04-17T03:09:22.252Z,21.93
2018-04-17T03:11:49.630Z,22.77
2018-04-17T03:14:17.026Z,21.63
2018-04-17T03:16:44.411Z,20.70
2018-04-17T03:19:11.798Z,20.77
2018-04-17T03:21:39.179Z,24.47
2018-04-17T03:24:06.571Z,25.63
2018-04-17T03:26:33.963Z,23.47
2018-04-17T03:29:01.348Z,22.33
2018-04-17T03:31:28.742Z,27.97
2018-04-17T03:33:56.137Z,23.67
2018-04-17T03:36:23.523Z,22.80
2018-04-17T03:38:50.915Z,25.60
2018-04-17T03:41:18.295Z,20.27
2018-04-17T03:43:45.683Z,21.00
2018-04-17T03:46:13.068Z,22.80
2018-04-17T03:48:40.455Z,26.80
2018-04-17T03:51:07.838Z,23.63
2018-04-17T03:53:35.222Z,24.07
2018-04-17T03:56:02.635Z,21.03
2018-04-17T03:58:30.223Z,20.60
2018-04-17T04:00:57.621Z,21.57
2018-04-17T04:03:24.998Z,20.07
2018-04-17T04:05:52.383Z,20.60
2018-04-17T04:08:19.779Z,23.87
2018-04-17T04:10:47.167Z,21.27
2018-04-17T04:13:14.551Z,22.73
2018-04-17T04:15:41.939Z,23.50
2018-04-17T04:18:21.195Z,21.20
2018-04-17T04:21:00.346Z,22.60
2018-04-17T04:23:39.487Z,26.10
2018-04-17T04:26:18.707Z,26.37
2018-04-17T04:28:46.099Z,26.00
2018-04-17T04:31:13.480Z,22.53
2018-04-17T04:33:40.871Z,22.87
2018-04-17T04:36:08.255Z,22.80
2018-04-17T04:38:35.642Z,20.20
2018-04-17T04:41:03.041Z,22.50
2018-04-17T04:43:30.424Z,21.00
2018-04-17T04:45:57.815Z,21.13
2018-04-17T04:48:25.607Z,27.00
2018-04-17T04:50:52.991Z,21.37
2018-04-17T04:53:20.392Z,22.00
2018-04-17T04:55:47.771Z,22.70
2018-04-17T04:58:15.161Z,25.00
2018-04-17T05:00:42.546Z,22.90
2018-04-17T05:03:09.931Z,26.83
2018-04-17T05:05:37.316Z,24.17
2018-04-17T05:08:04.703Z,25.20
2018-04-17T05:10:32.091Z,23.67
2018-04-17T05:12:59.482Z,22.03
2018-04-17T05:15:26.887Z,21.83
2018-04-17T05:17:54.379Z,20.50
2018-04-17T05:20:22.050Z,21.07
2018-04-17T05:22:49.427Z,21.60
2018-04-17T05:25:16.810Z,22.27
2018-04-17T05:27:44.210Z,22.60
2018-04-17T05:30:11.595Z,21.50
2018-04-17T05:32:38.988Z,21.77
2018-04-17T05:35:06.375Z,21.47
2018-04-17T05:37:33.764Z,23.87
2018-04-17T05:40:01.224Z,22.90
2018-04-17T05:42:28.622Z,21.33
2018-04-17T05:44:56.014Z,22.67
2018-04-17T05:47:23.406Z,24.20
2018-04-17T05:49:50.796Z,26.80
2018-04-17T05:52:18.187Z,23.57
2018-04-17T05:54:45.579Z,25.33
2018-04-17T05:57:12.975Z,23.93
2018-04-17T05:59:40.359Z,23.53
2018-04-17T06:02:07.751Z,34.67
2018-04-17T06:04:35.149Z,23.77
2018-04-17T06:07:02.535Z,22.37
2018-04-17T06:09:29.935Z,23.60
2018-04-17T06:11:57.349Z,23.70
2018-04-17T06:14:24.722Z,22.43
2018-04-17T06:16:52.144Z,22.63
2018-04-17T06:19:19.531Z,22.80
2018-04-17T06:21:46.935Z,21.93
2018-04-17T06:24:14.324Z,22.00
2018-04-17T06:26:41.713Z,21.63
2018-04-17T06:29:09.102Z,22.30
2018-04-17T06:31:36.496Z,20.57
2018-04-17T06:34:03.890Z,21.00
2018-04-17T06:36:31.284Z,21.97
2018-04-17T06:38:58.675Z,21.57
2018-04-17T06:41:26.082Z,22.27
2018-04-17T06:43:53.458Z,23.53
2018-04-17T06:46:20.891Z,22.67
2018-04-17T06:48:48.280Z,23.23
2018-04-17T06:51:15.670Z,22.70
2018-04-17T06:53:43.062Z,24.63
2018-04-17T06:56:10.452Z,23.93
2018-04-17T06:58:37.871Z,22.97
2018-04-17T07:01:05.255Z,24.00
2018-04-17T07:03:32.640Z,23.03
2018-04-17T07:06:00.040Z,21.40
2018-04-17T07:08:27.429Z,22.50
2018-04-17T07:10:54.819Z,23.60
2018-04-17T07:13:22.202Z,22.20
2018-04-17T07:15:49.599Z,24.10
2018-04-17T07:18:16.994Z,23.83
2018-04-17T07:20:44.368Z,22.13
2018-04-17T07:23:11.759Z,21.30
2018-04-17T07:25:39.149Z,20.83
2018-04-17T07:28:06.544Z,23.87
2018-04-17T07:30:33.932Z,25.27
2018-04-17T07:33:01.337Z,27.00
2018-04-17T07:35:28.722Z,26.27
2018-04-17T07:37:56.107Z,27.17
2018-04-17T07:40:23.553Z,27.47
2018-04-17T07:42:50.908Z,26.90
2018-04-17T07:45:18.299Z,27.97
2018-04-17T07:50:44.483Z,26.23
2018-04-17T07:53:11.882Z,26.53
2018-04-17T07:55:39.276Z,31.27
2018-04-17T07:58:06.958Z,24.67
2018-04-17T08:00:34.348Z,25.77
2018-04-17T08:03:01.731Z,26.00
2018-04-17T08:05:29.127Z,24.93
2018-04-17T08:07:56.606Z,28.10
2018-04-17T08:10:23.992Z,25.30
2018-04-17T08:12:51.378Z,25.60
2018-04-17T08:15:18.767Z,25.27
2018-04-17T08:17:46.170Z,25.50
2018-04-17T08:20:13.569Z,22.63
2018-04-17T08:22:40.960Z,21.83
2018-04-17T08:25:08.342Z,21.20
2018-04-17T08:27:35.735Z,21.30
2018-04-17T08:30:03.140Z,21.40
2018-04-17T08:32:30.831Z,22.53
2018-04-17T08:34:58.223Z,21.10
2018-04-17T08:37:25.612Z,24.90
2018-04-17T08:39:53.006Z,20.13
2018-04-17T08:42:20.576Z,19.20
2018-04-17T08:44:47.959Z,20.90
2018-04-17T08:47:15.351Z,21.30
2018-04-17T08:49:42.743Z,20.17
2018-04-17T08:52:10.138Z,19.83
2018-04-17T08:54:37.518Z,21.83
2018-04-17T08:57:06.275Z,19.83
2018-04-17T08:59:34.211Z,20.63
2018-04-17T09:02:01.599Z,19.93
2018-04-17T09:04:29.122Z,20.07
2018-04-17T09:06:56.538Z,20.53
2018-04-17T09:09:23.927Z,20.27
2018-04-17T09:11:51.354Z,20.10
2018-04-17T09:14:18.721Z,20.10
2018-04-17T09:16:46.107Z,20.87
2018-04-17T09:19:13.498Z,21.33
2018-04-17T09:21:40.892Z,22.07
2018-04-17T09:24:08.280Z,21.83
2018-04-17T09:26:35.663Z,25.33
2018-04-17T09:29:03.066Z,22.30
2018-04-17T09:31:30.456Z,22.43
2018-04-17T09:33:57.844Z,21.47
2018-04-17T09:36:25.243Z,20.93
2018-04-17T09:38:52.628Z,19.47
2018-04-17T09:41:20.012Z,20.97
2018-04-17T09:43:47.410Z,20.87
2018-04-17T09:46:14.871Z,20.57
2018-04-17T09:48:42.262Z,20.73
2018-04-17T09:51:09.994Z,21.17
2018-04-17T09:53:37.383Z,22.00
2018-04-17T09:56:04.778Z,19.67
2018-04-17T09:58:32.184Z,19.93
2018-04-17T10:00:59.567Z,22.17
2018-04-17T10:03:27.002Z,20.77
2018-04-17T10:05:54.403Z,20.93
2018-04-17T10:08:21.792Z,20.50
2018-04-17T10:10:49.182Z,21.67
2018-04-17T10:13:16.583Z,20.47
2018-04-17T10:15:43.972Z,22.20
2018-04-17T10:18:11.362Z,19.17
2018-04-17T10:20:39.071Z,19.60
2018-04-17T10:23:06.463Z,18.80
2018-04-17T10:25:33.854Z,18.67
2018-04-17T10:28:01.251Z,15.80
2018-04-17T10:30:28.639Z,19.33
2018-04-17T10:32:56.027Z,18.47
2018-04-17T10:35:23.419Z,21.60
2018-04-17T10:37:50.810Z,19.97
2018-04-17T10:40:18.203Z,19.73
2018-04-17T10:42:45.621Z,20.47
2018-04-17T10:45:13.005Z,18.90
2018-04-17T10:47:40.390Z,17.73
2018-04-17T10:50:07.947Z,18.40
2018-04-17T10:52:35.338Z,17.97
2018-04-17T10:55:02.738Z,22.07
2018-04-17T10:57:30.123Z,18.20
2018-04-17T10:59:57.515Z,18.63
2018-04-17T11:02:24.900Z,19.83
2018-04-17T11:04:52.329Z,17.90
2018-04-17T11:07:19.684Z,20.80
2018-04-17T11:09:47.074Z,20.93
2018-04-17T11:12:14.459Z,20.77
2018-04-17T11:14:41.855Z,20.70
2018-04-17T11:17:09.238Z,18.73
2018-04-17T11:19:36.635Z,20.30
2018-04-17T11:22:04.023Z,21.63
2018-04-17T11:24:31.425Z,21.30
2018-04-17T11:26:58.807Z,18.83
2018-04-17T11:29:26.211Z,18.80
2018-04-17T11:31:53.602Z,19.00
2018-04-17T11:34:20.996Z,19.80
2018-04-17T11:36:48.387Z,19.13
2018-04-17T11:39:15.788Z,19.20
2018-04-17T11:41:43.208Z,18.77
2018-04-17T11:44:10.563Z,19.00
2018-04-17T11:46:37.955Z,18.33
2018-04-17T11:49:05.340Z,17.90
2018-04-17T11:51:32.736Z,16.20
2018-04-17T11:54:00.119Z,17.00
2018-04-17T11:56:27.512Z,17.60
2018-04-17T11:58:54.895Z,17.30
2018-04-17T12:01:22.287Z,18.27
2018-04-17T12:03:49.672Z,18.50
2018-04-17T12:06:17.065Z,19.97
2018-04-17T12:08:44.447Z,20.70
2018-04-17T12:11:11.839Z,20.57
2018-04-17T12:13:39.229Z,19.20
2018-04-17T12:16:06.624Z,21.57
2018-04-17T12:18:34.086Z,19.10
2018-04-17T12:21:01.487Z,18.83
2018-04-17T12:23:28.875Z,21.97
2018-04-17T12:25:56.278Z,21.37
2018-04-17T12:28:23.666Z,22.53
2018-04-17T12:30:51.052Z,19.73
2018-04-17T12:33:18.443Z,21.50
2018-04-17T12:35:45.835Z,20.63
2018-04-17T12:38:13.228Z,18.33
2018-04-17T12:40:40.738Z,18.33
2018-04-17T12:43:08.131Z,18.47
2018-04-17T12:45:35.518Z,18.73
2018-04-17T12:48:02.911Z,18.77
2018-04-17T12:50:30.299Z,20.23
2018-04-17T12:52:57.692Z,17.57
2018-04-17T12:55:25.079Z,19.10
2018-04-17T12:57:52.471Z,18.87
2018-04-17T13:00:19.859Z,20.40
2018-04-17T13:02:47.255Z,19.20
2018-04-17T13:05:14.640Z,20.53
2018-04-17T13:07:42.097Z,17.17
2018-04-17T13:10:09.423Z,18.33
2018-04-17T13:12:36.810Z,19.77
2018-04-17T13:15:04.203Z,19.03
2018-04-17T13:17:31.595Z,21.40
2018-04-17T13:19:58.983Z,19.43
2018-04-17T13:22:26.559Z,18.77
2018-04-17T13:24:53.952Z,21.13
2018-04-17T13:27:21.352Z,20.57
2018-04-17T13:29:48.745Z,21.10
2018-04-17T13:32:16.175Z,22.13
2018-04-17T13:34:43.567Z,21.10
2018-04-17T13:37:10.961Z,20.67
2018-04-17T13:39:38.353Z,20.10
2018-04-17T13:42:05.755Z,20.07
2018-04-17T13:44:33.151Z,18.97
2018-04-17T13:47:00.547Z,18.93
2018-04-17T13:49:27.946Z,21.30
2018-04-17T13:51:55.957Z,20.30
2018-04-17T13:54:23.339Z,20.03
2018-04-17T13:56:50.730Z,21.30
2018-04-17T13:59:18.119Z,19.70
2018-04-17T14:01:45.507Z,21.90
2018-04-17T14:04:12.899Z,20.00
2018-04-17T14:06:40.295Z,22.17
2018-04-17T14:09:07.690Z,23.47
2018-04-17T14:11:35.087Z,20.83
2018-04-17T14:14:02.479Z,21.87
2018-04-17T14:16:29.867Z,21.67
2018-04-17T14:18:57.263Z,20.10
2018-04-17T14:21:24.655Z,19.20
2018-04-17T14:23:52.043Z,19.07
2018-04-17T14:26:19.437Z,21.40
2018-04-17T14:28:46.823Z,19.27
2018-04-17T14:31:14.215Z,21.33
2018-04-17T14:33:41.603Z,23.80
2018-04-17T14:36:09.022Z,23.40
2018-04-17T14:38:36.418Z,20.73
2018-04-17T14:41:03.815Z,19.27
2018-04-17T14:43:31.203Z,19.87
2018-04-17T14:45:58.596Z,20.17
2018-04-17T14:48:26.077Z,22.73
2018-04-17T14:50:53.459Z,19.93
2018-04-17T14:53:20.855Z,21.53
2018-04-17T14:55:48.262Z,20.97
2018-04-17T14:58:15.833Z,20.80
2018-04-17T15:00:43.227Z,22.37
2018-04-17T15:03:10.628Z,21.53
2018-04-17T15:05:38.015Z,21.93
2018-04-17T15:08:05.410Z,22.50
2018-04-17T15:10:32.874Z,21.13
2018-04-17T15:13:00.276Z,21.77
2018-04-17T15:15:27.659Z,21.50
2018-04-17T15:17:55.042Z,20.00
2018-04-17T15:20:22.974Z,19.33
2018-04-17T15:22:50.591Z,19.60
2018-04-17T15:25:18.001Z,18.30
2018-04-17T15:27:45.388Z,20.07
2018-04-17T15:30:12.790Z,17.77
2018-04-17T15:32:40.168Z,16.50
2018-04-17T15:35:07.565Z,17.57
2018-04-17T15:37:35.015Z,17.67
2018-04-17T15:40:02.414Z,18.00
2018-04-17T15:42:29.807Z,16.90
2018-04-17T15:44:57.199Z,17.30
2018-04-17T15:47:24.591Z,16.10
2018-04-17T15:49:51.996Z,17.30
2018-04-17T15:52:19.379Z,18.00
2018-04-17T15:54:46.768Z,16.57
2018-04-17T15:57:14.174Z,18.57
2018-04-17T15:59:41.579Z,16.53
2018-04-17T16:02:08.975Z,16.07
2018-04-17T16:04:36.367Z,15.47
2018-04-17T16:07:03.763Z,17.13
2018-04-17T16:09:31.155Z,15.90
2018-04-17T16:11:58.548Z,16.27
2018-04-17T16:14:25.935Z,17.20
2018-04-17T16:16:53.327Z,16.13
2018-04-17T16:19:20.718Z,15.00
2018-04-17T16:21:48.111Z,15.97
2018-04-17T16:24:15.503Z,17.43
2018-04-17T16:26:42.895Z,18.20
2018-04-17T16:29:10.279Z,16.10
2018-04-17T16:31:37.675Z,16.23
2018-04-17T16:34:05.067Z,14.90
2018-04-17T16:36:32.459Z,16.40
2018-04-17T16:38:59.857Z,15.00
2018-04-17T16:41:27.248Z,13.80
2018-04-17T16:43:54.700Z,16.83
2018-04-17T16:46:22.151Z,15.90
2018-04-17T16:48:49.543Z,15.47
2018-04-17T16:51:17.133Z,14.70
2018-04-17T16:53:44.502Z,16.10
2018-04-17T16:56:11.890Z,15.77
2018-04-17T16:58:39.286Z,15.10
2018-04-17T17:01:06.674Z,16.40
2018-04-17T17:03:34.070Z,15.53
2018-04-17T17:06:01.457Z,15.37
2018-04-17T17:08:28.848Z,16.27
2018-04-17T17:10:56.235Z,15.87
2018-04-17T17:13:23.627Z,15.43
2018-04-17T17:15:51.027Z,14.93
2018-04-17T17:18:18.418Z,14.40
2018-04-17T17:20:45.820Z,14.77
2018-04-17T17:23:13.206Z,13.90
2018-04-17T17:25:40.604Z,14.53
2018-04-17T17:28:08.109Z,14.80
2018-04-17T17:30:35.486Z,14.53
2018-04-17T17:33:02.871Z,14.57
2018-04-17T17:35:30.272Z,13.27
2018-04-17T17:37:57.650Z,15.07
2018-04-17T17:40:25.052Z,14.87
2018-04-17T17:42:52.440Z,14.70
2018-04-17T17:45:19.839Z,16.10
2018-04-17T17:47:47.225Z,14.33
2018-04-17T17:50:14.727Z,14.33
2018-04-17T17:52:42.116Z,15.03
2018-04-17T17:55:09.499Z,15.23
2018-04-17T17:57:36.895Z,16.67
2018-04-17T18:00:04.286Z,15.30
2018-04-17T18:02:31.684Z,14.97
2018-04-17T18:04:59.155Z,15.83
2018-04-17T18:07:26.498Z,15.27
2018-04-17T18:09:53.890Z,15.30
2018-04-17T18:12:21.347Z,15.50
2018-04-17T18:14:48.679Z,14.47
2018-04-17T18:17:16.071Z,15.30
2018-04-17T18:19:43.539Z,14.67
2018-04-17T18:22:10.863Z,15.43
2018-04-17T18:24:38.251Z,14.27
2018-04-17T18:27:05.638Z,15.00
2018-04-17T18:29:33.031Z,15.90
2018-04-17T18:32:00.444Z,15.43
2018-04-17T18:34:27.811Z,16.70
2018-04-17T18:36:55.199Z,15.83
2018-04-17T18:39:22.611Z,16.03
2018-04-17T18:41:50.006Z,16.17
2018-04-17T18:44:17.413Z,16.47
2018-04-17T18:46:44.971Z,16.37
2018-04-17T18:49:12.404Z,16.10
2018-04-17T18:51:39.860Z,14.87
2018-04-17T18:54:07.247Z,16.90
2018-04-17T18:56:34.635Z,16.30
2018-04-17T18:59:02.052Z,16.90
2018-04-17T19:01:29.448Z,18.00
2018-04-17T19:03:56.879Z,18.87
2018-04-17T19:06:24.276Z,23.60
2018-04-17T19:08:51.675Z,26.07
2018-04-17T19:11:19.063Z,28.07
2018-04-17T19:13:46.473Z,24.37
2018-04-17T19:16:13.847Z,21.30
2018-04-17T19:18:41.235Z,18.50
2018-04-17T19:21:08.619Z,18.10
2018-04-17T19:23:36.003Z,18.20
2018-04-17T19:26:03.402Z,17.13
2018-04-17T19:28:30.785Z,17.90
2018-04-17T19:30:58.177Z,17.50
2018-04-17T19:33:25.555Z,16.70
2018-04-17T19:35:53.003Z,16.70
2018-04-17T19:38:20.391Z,16.47
2018-04-17T19:40:47.787Z,16.70
2018-04-17T19:43:15.171Z,17.87
2018-04-17T19:45:42.615Z,15.73
2018-04-17T19:48:09.987Z,16.27
2018-04-17T19:50:37.383Z,16.87
2018-04-17T19:53:04.771Z,16.93
2018-04-17T19:55:32.171Z,15.70
2018-04-17T19:57:59.563Z,15.80
2018-04-17T20:00:26.951Z,16.30
2018-04-17T20:02:54.345Z,16.10
2018-04-17T20:05:21.723Z,16.63
2018-04-17T20:07:49.118Z,16.67
2018-04-17T20:10:16.507Z,17.43
2018-04-17T20:12:43.898Z,17.00
2018-04-17T20:15:11.289Z,16.43
2018-04-17T20:17:38.683Z,17.70
2018-04-17T20:20:06.064Z,16.20
2018-04-17T20:22:33.458Z,16.60
2018-04-17T20:25:00.851Z,16.90
2018-04-17T20:27:28.238Z,16.57
2018-04-17T20:29:55.619Z,15.60
2018-04-17T20:32:23.026Z,17.33
2018-04-17T20:34:50.422Z,17.30
2018-04-17T20:37:17.810Z,18.23
2018-04-17T20:39:45.210Z,16.40
2018-04-17T20:42:12.624Z,17.30
2018-04-17T20:44:40.237Z,18.33
2018-04-17T20:47:07.648Z,17.70
2018-04-17T20:49:35.039Z,18.57
2018-04-17T20:52:02.426Z,18.77
2018-04-17T20:54:29.822Z,18.33
2018-04-17T20:56:57.215Z,19.90
2018-04-17T20:59:24.605Z,20.00
2018-04-17T21:01:52.020Z,19.47
2018-04-17T21:04:19.405Z,19.53
2018-04-17T21:06:46.787Z,20.13
2018-04-17T21:09:14.179Z,19.27
2018-04-17T21:11:41.563Z,18.07
2018-04-17T21:14:08.955Z,17.90
2018-04-17T21:16:36.340Z,19.53
2018-04-17T21:19:04.059Z,18.07
2018-04-17T21:21:31.515Z,19.33
2018-04-17T21:23:58.907Z,18.37
2018-04-17T21:26:26.303Z,17.70
2018-04-17T21:28:53.691Z,17.33
2018-04-17T21:31:21.084Z,18.37
2018-04-17T21:33:48.475Z,17.00
2018-04-17T21:36:15.871Z,18.03
2018-04-17T21:38:43.371Z,17.40
2018-04-17T21:41:10.773Z,18.97
2018-04-17T21:43:38.155Z,18.63
2018-04-17T21:46:05.547Z,18.00
2018-04-17T21:48:32.930Z,18.20
2018-04-17T21:51:00.323Z,18.60
2018-04-17T21:53:27.720Z,18.40
2018-04-17T21:55:55.114Z,18.23
2018-04-17T21:58:22.505Z,18.73
2018-04-17T22:00:49.890Z,18.07
2018-04-17T22:03:17.283Z,17.30
2018-04-17T22:05:44.667Z,19.10
2018-04-17T22:08:12.059Z,17.10
2018-04-17T22:10:39.443Z,18.77
2018-04-17T22:13:06.835Z,18.53
2018-04-17T22:15:34.227Z,17.87
2018-04-17T22:18:01.622Z,18.77
2018-04-17T22:20:29.007Z,17.37
2018-04-17T22:22:56.439Z,17.63
2018-04-17T22:25:23.827Z,17.50
2018-04-17T22:27:51.219Z,16.73
2018-04-17T22:30:18.607Z,16.40
2018-04-17T22:32:45.995Z,16.17
2018-04-17T22:35:13.387Z,16.33
2018-04-17T22:37:40.787Z,16.97
2018-04-17T22:40:08.179Z,16.00
2018-04-17T22:42:35.567Z,16.83
2018-04-17T22:45:02.975Z,15.93
2018-04-17T22:47:30.360Z,17.40
2018-04-17T22:49:57.752Z,16.50
2018-04-17T22:52:25.147Z,17.00
2018-04-17T22:54:52.535Z,17.20
2018-04-17T22:57:19.918Z,16.90
2018-04-17T22:59:47.318Z,16.53
2018-04-17T23:02:14.699Z,15.17
2018-04-17T23:04:42.091Z,16.30
2018-04-17T23:07:09.474Z,16.47
2018-04-17T23:09:36.866Z,16.47
2018-04-17T23:12:04.255Z,15.57
2018-04-17T23:14:31.665Z,17.90
2018-04-17T23:16:59.035Z,16.20
2018-04-17T23:19:26.441Z,16.60
2018-04-17T23:21:53.826Z,16.50
2018-04-17T23:24:21.223Z,15.63
2018-04-17T23:26:48.619Z,16.80
2018-04-17T23:29:16.007Z,15.63
2018-04-17T23:31:43.399Z,15.33
2018-04-17T23:34:10.782Z,15.73
2018-04-17T23:36:38.175Z,15.90
2018-04-17T23:39:05.560Z,16.13
2018-04-17T23:41:32.955Z,16.20
2018-04-17T23:44:00.338Z,15.93
2018-04-17T23:46:27.747Z,15.70
2018-04-17T23:48:55.140Z,16.00
2018-04-17T23:51:22.531Z,16.77
2018-04-17T23:53:49.920Z,15.80
2018-04-17T23:56:17.315Z,15.73
2018-04-17T23:58:44.699Z,15.90
